Leblanc, Louisiana
Current Conditions -  °F | °C
As of 6:15 PM on Sunday 23 Nov 2014 (Local Time) from KACP Reporting Station
Scattered Clouds Scattered Clouds  
Wind Chill: 65°   Ceiling: Unl
Heat Index: 65°   Visibility: 10mi
Dew Point: 62°   Wind: 5mph
Humidity: 87%   Direction: 180°S
Pressure: 29.58"   Gusts: NA
Location:  30.51°N, 92.94°W
Report Text: KACP 240015Z AUTO 18004KT 10SM SCT012 19/16 A2958 RMK AO2 T01860164
Loading
Personal Weather Stations






























Interactive Weather Map New forecast layout! Learn more

10-Day Weather Forecast

Advertisements
Track Severe Weather on mobile